Virtual Norwegian Aeroclub

Virtual Norwegian Aeroclub! A new look to our va.




 METAR AND TAF INFORMATION
METAR FOR ENAL
ADDS - METARS form results

(1107 UTC 26 May 2019)
Data provider http://aviationweather.gov/metar/data/
 
METAR text: ENAL 261050Z 01008KT 330V030 9999 FEW026 BKN034 09/03 Q1004
Conditions at: ENAL (ALESUND/VIGRA , NO) observed 1050 UTC 26 May 2019
Temperature: 9.0°C (48°F)
Dewpoint: 3.0°C (37°F) [RH = 66%]
Pressure (altimeter): 29.65 inches Hg (1004.0 mb)
Winds: from the N (10 degrees) at 9 MPH (8 knots; 4.1 m/s)
Visibility: 6 or more miles (10+ km)
Ceiling: 3400 feet AGL
Clouds: few clouds at 2600 feet AGL
broken clouds at 3400 feet AGL
Weather: no significant weather observed at this time

METAR text: ENAL 261020Z 01008KT 350V050 9999 FEW023 BKN030 08/03 Q1004
Conditions at: ENAL (ALESUND/VIGRA , NO) observed 1020 UTC 26 May 2019
Temperature: 8.0°C (46°F)
Dewpoint: 3.0°C (37°F) [RH = 71%]
Pressure (altimeter): 29.65 inches Hg (1004.0 mb)
Winds: from the N (10 degrees) at 9 MPH (8 knots; 4.1 m/s)
Visibility: 6 or more miles (10+ km)
Ceiling: 3000 feet AGL
Clouds: few clouds at 2300 feet AGL
broken clouds at 3000 feet AGL
Weather: no significant weather observed at this time

Forecast for: ENAL (ALESUND/VIGRA , NO)
Text: TAF ENAL 260800Z 2609/2618 03012KT 9999 -SHRA FEW020 SCT040
Forecast period: 0900 to 1800 UTC 26 May 2019
Forecast type: FROM: standard forecast or significant change
Winds: from the NNE (30 degrees) at 14 MPH (12 knots; 6.2 m/s)
Visibility: 6 or more miles 10+ km)
Ceiling: at least 12,000 feet AGL
Clouds: few clouds at 2000 feet AGL
scattered clouds at 4000 feet AGL
Weather: -SHRA  (light rain showers)

 AIRPORT MAP

 RUNWAY INFORMATION
Runway 07 Runway length 7592 ft Runway width 148 ft
Runway elevation 34 ft Runway displaced threshold 490 ft Runway heading 65
Runway 25 Runway length 7592 ft Runway width 148 ft
Runway elevation 48 ft Runway displaced threshold 755 ft Runway heading 245

 AIRPORT FREQUENCIES
Type ATIS Name ATIS Frequency 128.65 MHZ
Type TWR Name TWR Frequency 119.85 MHZ

 AIRPORT NEAR NAVIGATION AIDS
Type NDB Name Vigra Frequency 355 KHZ
Type TACAN Name Vigra Frequency 112400 KHZ
Type VOR-DME Name Vigra Frequency 115800 KHZ